sensor_id;sensor_type;location;lat;lon;timestamp;P1;durP1;ratioP1;P2;durP2;ratioP2
18653;SDS011;9456;47.824;16.228;2023-03-16T00:01:04;4.13;;;3.70;;
18653;SDS011;9456;47.824;16.228;2023-03-16T00:03:33;4.87;;;3.73;;
18653;SDS011;9456;47.824;16.228;2023-03-16T00:06:03;4.17;;;2.97;;
18653;SDS011;9456;47.824;16.228;2023-03-16T00:08:33;3.27;;;2.97;;
18653;SDS011;9456;47.824;16.228;2023-03-16T00:14:08;4.37;;;3.70;;
18653;SDS011;9456;47.824;16.228;2023-03-16T00:16:37;4.23;;;3.80;;
18653;SDS011;9456;47.824;16.228;2023-03-16T00:19:08;6.23;;;3.90;;
18653;SDS011;9456;47.824;16.228;2023-03-16T00:21:38;5.73;;;3.80;;
18653;SDS011;9456;47.824;16.228;2023-03-16T00:24:07;6.73;;;4.50;;
18653;SDS011;9456;47.824;16.228;2023-03-16T00:26:39;8.17;;;4.07;;
18653;SDS011;9456;47.824;16.228;2023-03-16T00:29:09;5.40;;;4.10;;
18653;SDS011;9456;47.824;16.228;2023-03-16T00:34:39;5.17;;;4.07;;
18653;SDS011;9456;47.824;16.228;2023-03-16T00:37:12;4.03;;;3.63;;
18653;SDS011;9456;47.824;16.228;2023-03-16T00:39:41;7.17;;;4.10;;
18653;SDS011;9456;47.824;16.228;2023-03-16T00:42:10;5.87;;;3.90;;
18653;SDS011;9456;47.824;16.228;2023-03-16T00:44:40;9.90;;;4.70;;
18653;SDS011;9456;47.824;16.228;2023-03-16T00:47:09;4.07;;;3.70;;
18653;SDS011;9456;47.824;16.228;2023-03-16T00:49:40;4.80;;;4.03;;
18653;SDS011;9456;47.824;16.228;2023-03-16T00:57:25;4.43;;;3.43;;
18653;SDS011;9456;47.824;16.228;2023-03-16T00:59:57;4.13;;;3.67;;
18653;SDS011;9456;47.824;16.228;2023-03-16T01:13:18;5.50;;;3.47;;
18653;SDS011;9456;47.824;16.228;2023-03-16T01:15:50;3.90;;;3.60;;
18653;SDS011;9456;47.824;16.228;2023-03-16T01:18:27;4.20;;;3.60;;
18653;SDS011;9456;47.824;16.228;2023-03-16T01:24:08;4.10;;;3.80;;
18653;SDS011;9456;47.824;16.228;2023-03-16T01:29:07;4.30;;;3.90;;
18653;SDS011;9456;47.824;16.228;2023-03-16T01:31:41;3.57;;;3.30;;
18653;SDS011;9456;47.824;16.228;2023-03-16T01:34:10;4.10;;;3.70;;
18653;SDS011;9456;47.824;16.228;2023-03-16T01:36:40;3.90;;;3.60;;
18653;SDS011;9456;47.824;16.228;2023-03-16T01:39:09;5.07;;;3.93;;
18653;SDS011;9456;47.824;16.228;2023-03-16T01:41:38;3.83;;;3.50;;
18653;SDS011;9456;47.824;16.228;2023-03-16T01:44:14;5.03;;;3.50;;
18653;SDS011;9456;47.824;16.228;2023-03-16T01:46:43;3.60;;;3.20;;
18653;SDS011;9456;47.824;16.228;2023-03-16T01:51:42;4.40;;;3.70;;
18653;SDS011;9456;47.824;16.228;2023-03-16T01:54:19;6.63;;;4.17;;
18653;SDS011;9456;47.824;16.228;2023-03-16T01:56:49;4.57;;;3.83;;
18653;SDS011;9456;47.824;16.228;2023-03-16T01:59:22;4.33;;;3.60;;
18653;SDS011;9456;47.824;16.228;2023-03-16T02:01:51;5.40;;;3.80;;
18653;SDS011;9456;47.824;16.228;2023-03-16T02:04:33;4.07;;;3.67;;
18653;SDS011;9456;47.824;16.228;2023-03-16T02:07:04;5.00;;;3.40;;
18653;SDS011;9456;47.824;16.228;2023-03-16T02:09:33;3.97;;;3.57;;
18653;SDS011;9456;47.824;16.228;2023-03-16T02:12:03;4.20;;;3.80;;
18653;SDS011;9456;47.824;16.228;2023-03-16T02:14:33;5.37;;;3.90;;
18653;SDS011;9456;47.824;16.228;2023-03-16T02:17:02;5.80;;;3.77;;
18653;SDS011;9456;47.824;16.228;2023-03-16T02:19:34;4.10;;;3.70;;
18653;SDS011;9456;47.824;16.228;2023-03-16T02:22:03;5.40;;;4.23;;
18653;SDS011;9456;47.824;16.228;2023-03-16T02:24:33;4.07;;;3.70;;
18653;SDS011;9456;47.824;16.228;2023-03-16T02:27:02;4.27;;;3.90;;
18653;SDS011;9456;47.824;16.228;2023-03-16T02:32:41;4.20;;;3.80;;
18653;SDS011;9456;47.824;16.228;2023-03-16T02:35:10;8.43;;;4.17;;
18653;SDS011;9456;47.824;16.228;2023-03-16T02:37:41;4.13;;;3.73;;
18653;SDS011;9456;47.824;16.228;2023-03-16T02:40:18;3.93;;;3.63;;
18653;SDS011;9456;47.824;16.228;2023-03-16T02:42:48;5.67;;;5.10;;
18653;SDS011;9456;47.824;16.228;2023-03-16T02:45:18;6.87;;;4.50;;
18653;SDS011;9456;47.824;16.228;2023-03-16T02:47:53;9.17;;;3.77;;
18653;SDS011;9456;47.824;16.228;2023-03-16T02:50:22;6.37;;;3.70;;
18653;SDS011;9456;47.824;16.228;2023-03-16T02:52:51;5.17;;;4.27;;
18653;SDS011;9456;47.824;16.228;2023-03-16T02:55:20;4.07;;;3.70;;
18653;SDS011;9456;47.824;16.228;2023-03-16T02:57:49;4.60;;;4.20;;
18653;SDS011;9456;47.824;16.228;2023-03-16T03:00:20;5.33;;;4.53;;
18653;SDS011;9456;47.824;16.228;2023-03-16T03:02:49;6.23;;;5.13;;
18653;SDS011;9456;47.824;16.228;2023-03-16T03:05:19;5.87;;;4.40;;
18653;SDS011;9456;47.824;16.228;2023-03-16T03:07:48;4.87;;;4.33;;
18653;SDS011;9456;47.824;16.228;2023-03-16T03:10:17;4.67;;;4.20;;
18653;SDS011;9456;47.824;16.228;2023-03-16T03:12:46;11.33;;;4.57;;
18653;SDS011;9456;47.824;16.228;2023-03-16T03:15:16;4.77;;;4.37;;
18653;SDS011;9456;47.824;16.228;2023-03-16T03:17:46;4.97;;;4.57;;
18653;SDS011;9456;47.824;16.228;2023-03-16T03:20:15;5.63;;;4.73;;
18653;SDS011;9456;47.824;16.228;2023-03-16T03:22:44;6.47;;;4.60;;
18653;SDS011;9456;47.824;16.228;2023-03-16T03:25:14;5.03;;;4.57;;
18653;SDS011;9456;47.824;16.228;2023-03-16T03:27:42;9.00;;;4.70;;
18653;SDS011;9456;47.824;16.228;2023-03-16T03:30:13;5.07;;;4.57;;
18653;SDS011;9456;47.824;16.228;2023-03-16T03:32:41;8.17;;;5.13;;
18653;SDS011;9456;47.824;16.228;2023-03-16T03:35:11;6.37;;;4.73;;
18653;SDS011;9456;47.824;16.228;2023-03-16T03:37:39;5.40;;;4.87;;
18653;SDS011;9456;47.824;16.228;2023-03-16T03:40:09;8.47;;;5.23;;
18653;SDS011;9456;47.824;16.228;2023-03-16T03:42:39;10.30;;;5.07;;
18653;SDS011;9456;47.824;16.228;2023-03-16T03:45:09;5.50;;;5.00;;
18653;SDS011;9456;47.824;16.228;2023-03-16T03:47:39;5.80;;;4.97;;
18653;SDS011;9456;47.824;16.228;2023-03-16T03:50:09;7.67;;;4.60;;
18653;SDS011;9456;47.824;16.228;2023-03-16T03:52:44;5.70;;;5.10;;
18653;SDS011;9456;47.824;16.228;2023-03-16T03:55:16;8.50;;;5.53;;
18653;SDS011;9456;47.824;16.228;2023-03-16T03:57:45;6.00;;;4.90;;
18653;SDS011;9456;47.824;16.228;2023-03-16T04:00:15;6.07;;;5.47;;
18653;SDS011;9456;47.824;16.228;2023-03-16T04:02:45;6.87;;;5.33;;
18653;SDS011;9456;47.824;16.228;2023-03-16T04:05:14;6.63;;;5.77;;
18653;SDS011;9456;47.824;16.228;2023-03-16T04:07:43;10.20;;;6.33;;
18653;SDS011;9456;47.824;16.228;2023-03-16T04:10:12;7.50;;;6.27;;
18653;SDS011;9456;47.824;16.228;2023-03-16T04:12:42;7.83;;;6.97;;
18653;SDS011;9456;47.824;16.228;2023-03-16T04:15:11;8.57;;;6.80;;
18653;SDS011;9456;47.824;16.228;2023-03-16T04:17:40;9.43;;;7.80;;
18653;SDS011;9456;47.824;16.228;2023-03-16T04:20:13;11.63;;;8.43;;
18653;SDS011;9456;47.824;16.228;2023-03-16T04:22:44;13.27;;;9.20;;
18653;SDS011;9456;47.824;16.228;2023-03-16T04:27:45;10.13;;;8.33;;
18653;SDS011;9456;47.824;16.228;2023-03-16T04:30:15;15.87;;;9.27;;
18653;SDS011;9456;47.824;16.228;2023-03-16T04:38:18;9.83;;;7.87;;
18653;SDS011;9456;47.824;16.228;2023-03-16T04:46:30;12.17;;;7.10;;
18653;SDS011;9456;47.824;16.228;2023-03-16T04:57:22;9.93;;;6.87;;
18653;SDS011;9456;47.824;16.228;2023-03-16T04:59:51;15.20;;;8.03;;
18653;SDS011;9456;47.824;16.228;2023-03-16T05:02:22;10.23;;;7.27;;
18653;SDS011;9456;47.824;16.228;2023-03-16T05:04:53;10.00;;;7.47;;
18653;SDS011;9456;47.824;16.228;2023-03-16T05:09:51;12.90;;;11.70;;
18653;SDS011;9456;47.824;16.228;2023-03-16T05:12:20;12.47;;;9.20;;
18653;SDS011;9456;47.824;16.228;2023-03-16T05:14:49;9.97;;;7.47;;
18653;SDS011;9456;47.824;16.228;2023-03-16T05:17:20;7.53;;;6.37;;
18653;SDS011;9456;47.824;16.228;2023-03-16T05:19:52;8.73;;;6.10;;
18653;SDS011;9456;47.824;16.228;2023-03-16T05:22:21;9.33;;;6.93;;
18653;SDS011;9456;47.824;16.228;2023-03-16T05:36:31;5.53;;;3.70;;
18653;SDS011;9456;47.824;16.228;2023-03-16T05:39:18;6.10;;;4.93;;
18653;SDS011;9456;47.824;16.228;2023-03-16T05:41:47;6.10;;;4.50;;
18653;SDS011;9456;47.824;16.228;2023-03-16T05:44:19;6.67;;;3.90;;
18653;SDS011;9456;47.824;16.228;2023-03-16T05:49:32;7.23;;;4.83;;
18653;SDS011;9456;47.824;16.228;2023-03-16T06:03:35;4.20;;;3.27;;
18653;SDS011;9456;47.824;16.228;2023-03-16T06:14:16;6.07;;;3.90;;
18653;SDS011;9456;47.824;16.228;2023-03-16T06:16:50;4.97;;;3.63;;
18653;SDS011;9456;47.824;16.228;2023-03-16T06:25:15;4.80;;;3.93;;
18653;SDS011;9456;47.824;16.228;2023-03-16T06:27:44;9.37;;;8.40;;
18653;SDS011;9456;47.824;16.228;2023-03-16T06:30:19;6.13;;;4.40;;
18653;SDS011;9456;47.824;16.228;2023-03-16T06:35:26;4.30;;;3.47;;
18653;SDS011;9456;47.824;16.228;2023-03-16T06:37:57;4.17;;;3.37;;
18653;SDS011;9456;47.824;16.228;2023-03-16T06:42:56;5.03;;;3.50;;
18653;SDS011;9456;47.824;16.228;2023-03-16T06:45:27;4.77;;;3.47;;
18653;SDS011;9456;47.824;16.228;2023-03-16T06:48:06;4.73;;;3.33;;
18653;SDS011;9456;47.824;16.228;2023-03-16T06:50:45;6.53;;;3.13;;
18653;SDS011;9456;47.824;16.228;2023-03-16T06:56:36;5.43;;;3.03;;
18653;SDS011;9456;47.824;16.228;2023-03-16T06:59:05;4.77;;;3.20;;
18653;SDS011;9456;47.824;16.228;2023-03-16T07:01:35;5.60;;;3.17;;
18653;SDS011;9456;47.824;16.228;2023-03-16T07:04:08;4.43;;;2.90;;
18653;SDS011;9456;47.824;16.228;2023-03-16T07:09:47;3.70;;;3.07;;
18653;SDS011;9456;47.824;16.228;2023-03-16T07:12:18;4.90;;;2.90;;
18653;SDS011;9456;47.824;16.228;2023-03-16T07:14:48;3.43;;;2.87;;
18653;SDS011;9456;47.824;16.228;2023-03-16T07:20:12;2.87;;;2.67;;
18653;SDS011;9456;47.824;16.228;2023-03-16T07:25:47;3.07;;;2.77;;
18653;SDS011;9456;47.824;16.228;2023-03-16T07:28:16;5.00;;;2.93;;
18653;SDS011;9456;47.824;16.228;2023-03-16T07:30:45;4.40;;;2.97;;
18653;SDS011;9456;47.824;16.228;2023-03-16T07:33:14;4.70;;;2.87;;
18653;SDS011;9456;47.824;16.228;2023-03-16T07:35:43;3.50;;;2.53;;
18653;SDS011;9456;47.824;16.228;2023-03-16T07:38:13;5.23;;;3.17;;
18653;SDS011;9456;47.824;16.228;2023-03-16T07:40:41;4.47;;;3.07;;
18653;SDS011;9456;47.824;16.228;2023-03-16T07:43:14;3.03;;;2.70;;
18653;SDS011;9456;47.824;16.228;2023-03-16T07:45:47;4.07;;;3.00;;
18653;SDS011;9456;47.824;16.228;2023-03-16T07:48:16;4.20;;;3.20;;
18653;SDS011;9456;47.824;16.228;2023-03-16T07:50:46;5.43;;;3.17;;
18653;SDS011;9456;47.824;16.228;2023-03-16T07:53:15;3.60;;;2.93;;
18653;SDS011;9456;47.824;16.228;2023-03-16T07:55:44;3.43;;;2.80;;
18653;SDS011;9456;47.824;16.228;2023-03-16T07:58:15;3.23;;;2.20;;
18653;SDS011;9456;47.824;16.228;2023-03-16T08:00:45;4.07;;;2.80;;
18653;SDS011;9456;47.824;16.228;2023-03-16T08:03:14;9.17;;;2.57;;
18653;SDS011;9456;47.824;16.228;2023-03-16T08:08:13;4.87;;;2.30;;
18653;SDS011;9456;47.824;16.228;2023-03-16T08:10:42;5.73;;;2.37;;
18653;SDS011;9456;47.824;16.228;2023-03-16T08:13:11;4.03;;;2.50;;
18653;SDS011;9456;47.824;16.228;2023-03-16T08:15:42;4.40;;;2.63;;
18653;SDS011;9456;47.824;16.228;2023-03-16T08:18:30;2.77;;;2.47;;
18653;SDS011;9456;47.824;16.228;2023-03-16T08:20:59;7.90;;;3.07;;
18653;SDS011;9456;47.824;16.228;2023-03-16T08:23:28;4.20;;;2.63;;
18653;SDS011;9456;47.824;16.228;2023-03-16T08:25:57;3.77;;;2.27;;
18653;SDS011;9456;47.824;16.228;2023-03-16T08:28:32;3.97;;;2.70;;
18653;SDS011;9456;47.824;16.228;2023-03-16T08:31:02;3.87;;;2.40;;
18653;SDS011;9456;47.824;16.228;2023-03-16T08:33:31;3.70;;;2.40;;
18653;SDS011;9456;47.824;16.228;2023-03-16T08:36:04;3.00;;;2.13;;
18653;SDS011;9456;47.824;16.228;2023-03-16T08:38:32;4.30;;;2.53;;
18653;SDS011;9456;47.824;16.228;2023-03-16T08:41:02;3.33;;;2.60;;
18653;SDS011;9456;47.824;16.228;2023-03-16T08:43:31;2.40;;;2.20;;
18653;SDS011;9456;47.824;16.228;2023-03-16T08:48:54;6.10;;;2.57;;
18653;SDS011;9456;47.824;16.228;2023-03-16T08:51:24;3.03;;;2.07;;
18653;SDS011;9456;47.824;16.228;2023-03-16T08:56:29;3.47;;;2.30;;
18653;SDS011;9456;47.824;16.228;2023-03-16T08:59:00;4.43;;;2.50;;
18653;SDS011;9456;47.824;16.228;2023-03-16T09:01:30;6.40;;;3.60;;
18653;SDS011;9456;47.824;16.228;2023-03-16T09:04:00;3.67;;;2.33;;
18653;SDS011;9456;47.824;16.228;2023-03-16T09:06:29;5.30;;;2.80;;
18653;SDS011;9456;47.824;16.228;2023-03-16T09:08:58;4.20;;;2.37;;
18653;SDS011;9456;47.824;16.228;2023-03-16T09:11:27;5.33;;;2.30;;
18653;SDS011;9456;47.824;16.228;2023-03-16T09:16:52;4.13;;;2.60;;
18653;SDS011;9456;47.824;16.228;2023-03-16T09:19:21;4.37;;;2.30;;
18653;SDS011;9456;47.824;16.228;2023-03-16T09:24:59;6.83;;;3.17;;
18653;SDS011;9456;47.824;16.228;2023-03-16T09:27:28;4.53;;;2.47;;
18653;SDS011;9456;47.824;16.228;2023-03-16T09:29:59;6.43;;;3.87;;
18653;SDS011;9456;47.824;16.228;2023-03-16T09:32:32;3.83;;;2.43;;
18653;SDS011;9456;47.824;16.228;2023-03-16T09:35:02;4.70;;;2.43;;
18653;SDS011;9456;47.824;16.228;2023-03-16T09:40:04;5.40;;;2.70;;
18653;SDS011;9456;47.824;16.228;2023-03-16T09:42:35;5.57;;;2.43;;
18653;SDS011;9456;47.824;16.228;2023-03-16T09:47:48;3.03;;;2.67;;
18653;SDS011;9456;47.824;16.228;2023-03-16T09:50:20;7.17;;;3.90;;
18653;SDS011;9456;47.824;16.228;2023-03-16T09:52:52;3.10;;;2.50;;
18653;SDS011;9456;47.824;16.228;2023-03-16T09:55:42;2.53;;;1.80;;
18653;SDS011;9456;47.824;16.228;2023-03-16T10:00:44;10.80;;;6.17;;
18653;SDS011;9456;47.824;16.228;2023-03-16T10:06:21;5.03;;;3.17;;
18653;SDS011;9456;47.824;16.228;2023-03-16T10:08:53;3.57;;;2.30;;
18653;SDS011;9456;47.824;16.228;2023-03-16T10:17:28;3.97;;;2.07;;
18653;SDS011;9456;47.824;16.228;2023-03-16T10:22:29;6.00;;;4.03;;
18653;SDS011;9456;47.824;16.228;2023-03-16T10:28:08;3.37;;;2.10;;
18653;SDS011;9456;47.824;16.228;2023-03-16T10:33:34;4.60;;;1.70;;
18653;SDS011;9456;47.824;16.228;2023-03-16T10:36:04;4.30;;;2.03;;
18653;SDS011;9456;47.824;16.228;2023-03-16T10:43:50;3.47;;;2.30;;
18653;SDS011;9456;47.824;16.228;2023-03-16T10:46:19;4.57;;;2.27;;
18653;SDS011;9456;47.824;16.228;2023-03-16T10:48:55;5.73;;;2.20;;
18653;SDS011;9456;47.824;16.228;2023-03-16T10:51:26;3.23;;;1.87;;
18653;SDS011;9456;47.824;16.228;2023-03-16T10:59:51;5.97;;;2.00;;
18653;SDS011;9456;47.824;16.228;2023-03-16T11:06:31;3.20;;;2.23;;
18653;SDS011;9456;47.824;16.228;2023-03-16T11:09:04;3.33;;;2.00;;
18653;SDS011;9456;47.824;16.228;2023-03-16T11:14:25;3.20;;;2.17;;
18653;SDS011;9456;47.824;16.228;2023-03-16T11:19:23;3.23;;;2.17;;
18653;SDS011;9456;47.824;16.228;2023-03-16T11:21:54;2.37;;;2.10;;
18653;SDS011;9456;47.824;16.228;2023-03-16T11:24:41;3.13;;;2.20;;
18653;SDS011;9456;47.824;16.228;2023-03-16T11:27:16;5.17;;;2.50;;
18653;SDS011;9456;47.824;16.228;2023-03-16T11:32:17;6.33;;;2.37;;
18653;SDS011;9456;47.824;16.228;2023-03-16T11:34:47;2.67;;;1.90;;
18653;SDS011;9456;47.824;16.228;2023-03-16T11:46:21;5.67;;;2.83;;
18653;SDS011;9456;47.824;16.228;2023-03-16T11:54:33;4.33;;;2.73;;
18653;SDS011;9456;47.824;16.228;2023-03-16T12:06:47;5.93;;;2.40;;
18653;SDS011;9456;47.824;16.228;2023-03-16T12:11:51;5.07;;;2.20;;
18653;SDS011;9456;47.824;16.228;2023-03-16T12:14:21;6.23;;;3.53;;
18653;SDS011;9456;47.824;16.228;2023-03-16T12:23:23;4.47;;;2.40;;
18653;SDS011;9456;47.824;16.228;2023-03-16T12:29:03;2.07;;;1.87;;
18653;SDS011;9456;47.824;16.228;2023-03-16T12:31:42;3.23;;;2.13;;
18653;SDS011;9456;47.824;16.228;2023-03-16T12:34:28;5.17;;;2.40;;
18653;SDS011;9456;47.824;16.228;2023-03-16T12:45:55;5.57;;;3.03;;
18653;SDS011;9456;47.824;16.228;2023-03-16T12:48:37;3.90;;;2.00;;
18653;SDS011;9456;47.824;16.228;2023-03-16T12:51:30;2.47;;;1.90;;
18653;SDS011;9456;47.824;16.228;2023-03-16T12:54:22;4.80;;;1.67;;
18653;SDS011;9456;47.824;16.228;2023-03-16T13:05:57;2.10;;;1.73;;
18653;SDS011;9456;47.824;16.228;2023-03-16T13:08:26;2.57;;;1.87;;
18653;SDS011;9456;47.824;16.228;2023-03-16T13:26:38;4.03;;;1.60;;
18653;SDS011;9456;47.824;16.228;2023-03-16T13:32:39;3.63;;;2.10;;
18653;SDS011;9456;47.824;16.228;2023-03-16T13:35:16;5.60;;;2.07;;
18653;SDS011;9456;47.824;16.228;2023-03-16T13:38:00;2.57;;;2.10;;
18653;SDS011;9456;47.824;16.228;2023-03-16T13:40:49;5.07;;;2.17;;
18653;SDS011;9456;47.824;16.228;2023-03-16T13:43:20;4.13;;;2.30;;
18653;SDS011;9456;47.824;16.228;2023-03-16T13:45:47;5.77;;;2.40;;
18653;SDS011;9456;47.824;16.228;2023-03-16T13:48:20;2.93;;;1.93;;
18653;SDS011;9456;47.824;16.228;2023-03-16T13:50:57;2.47;;;2.03;;
18653;SDS011;9456;47.824;16.228;2023-03-16T13:53:29;2.77;;;2.03;;
18653;SDS011;9456;47.824;16.228;2023-03-16T14:04:29;3.03;;;2.00;;
18653;SDS011;9456;47.824;16.228;2023-03-16T14:15:14;2.97;;;1.93;;
18653;SDS011;9456;47.824;16.228;2023-03-16T14:20:49;2.47;;;1.90;;
18653;SDS011;9456;47.824;16.228;2023-03-16T14:25:48;3.30;;;2.40;;
18653;SDS011;9456;47.824;16.228;2023-03-16T14:28:18;5.43;;;2.07;;
18653;SDS011;9456;47.824;16.228;2023-03-16T14:30:50;2.27;;;2.07;;
18653;SDS011;9456;47.824;16.228;2023-03-16T14:36:14;3.23;;;2.23;;
18653;SDS011;9456;47.824;16.228;2023-03-16T14:38:43;4.67;;;2.10;;
18653;SDS011;9456;47.824;16.228;2023-03-16T14:41:16;8.30;;;2.20;;
18653;SDS011;9456;47.824;16.228;2023-03-16T14:43:49;5.00;;;2.10;;
18653;SDS011;9456;47.824;16.228;2023-03-16T14:51:41;5.17;;;2.70;;
18653;SDS011;9456;47.824;16.228;2023-03-16T14:54:12;4.03;;;2.10;;
18653;SDS011;9456;47.824;16.228;2023-03-16T14:56:46;4.13;;;2.30;;
18653;SDS011;9456;47.824;16.228;2023-03-16T14:59:24;6.07;;;2.00;;
18653;SDS011;9456;47.824;16.228;2023-03-16T15:01:53;4.50;;;1.90;;
18653;SDS011;9456;47.824;16.228;2023-03-16T15:04:26;1.83;;;1.67;;
18653;SDS011;9456;47.824;16.228;2023-03-16T15:06:55;5.40;;;2.03;;
18653;SDS011;9456;47.824;16.228;2023-03-16T15:12:14;5.20;;;2.27;;
18653;SDS011;9456;47.824;16.228;2023-03-16T15:14:43;4.53;;;1.97;;
18653;SDS011;9456;47.824;16.228;2023-03-16T15:17:31;4.70;;;1.80;;
18653;SDS011;9456;47.824;16.228;2023-03-16T15:20:03;5.67;;;2.57;;
18653;SDS011;9456;47.824;16.228;2023-03-16T15:22:39;4.40;;;2.53;;
18653;SDS011;9456;47.824;16.228;2023-03-16T15:34:00;6.93;;;2.53;;
18653;SDS011;9456;47.824;16.228;2023-03-16T15:36:29;3.53;;;2.30;;
18653;SDS011;9456;47.824;16.228;2023-03-16T15:41:48;3.23;;;2.17;;
18653;SDS011;9456;47.824;16.228;2023-03-16T15:44:17;5.10;;;2.70;;
18653;SDS011;9456;47.824;16.228;2023-03-16T15:49:53;3.30;;;2.50;;
18653;SDS011;9456;47.824;16.228;2023-03-16T15:52:25;3.67;;;2.33;;
18653;SDS011;9456;47.824;16.228;2023-03-16T15:54:51;8.23;;;2.80;;
18653;SDS011;9456;47.824;16.228;2023-03-16T16:03:04;5.80;;;3.03;;
18653;SDS011;9456;47.824;16.228;2023-03-16T16:05:39;6.83;;;2.53;;
18653;SDS011;9456;47.824;16.228;2023-03-16T16:11:38;5.50;;;3.57;;
18653;SDS011;9456;47.824;16.228;2023-03-16T16:25:50;6.07;;;3.30;;
18653;SDS011;9456;47.824;16.228;2023-03-16T16:33:56;5.73;;;3.10;;
18653;SDS011;9456;47.824;16.228;2023-03-16T16:39:04;4.20;;;2.80;;
18653;SDS011;9456;47.824;16.228;2023-03-16T16:44:47;5.33;;;3.47;;
18653;SDS011;9456;47.824;16.228;2023-03-16T16:47:22;11.73;;;5.73;;
18653;SDS011;9456;47.824;16.228;2023-03-16T16:49:52;5.67;;;3.37;;
18653;SDS011;9456;47.824;16.228;2023-03-16T16:52:21;5.43;;;3.40;;
18653;SDS011;9456;47.824;16.228;2023-03-16T16:54:50;5.63;;;3.53;;
18653;SDS011;9456;47.824;16.228;2023-03-16T16:57:20;9.93;;;3.23;;
18653;SDS011;9456;47.824;16.228;2023-03-16T16:59:49;9.37;;;4.23;;
18653;SDS011;9456;47.824;16.228;2023-03-16T17:02:25;9.70;;;4.00;;
18653;SDS011;9456;47.824;16.228;2023-03-16T17:04:53;13.97;;;4.27;;
18653;SDS011;9456;47.824;16.228;2023-03-16T17:07:22;6.70;;;4.83;;
18653;SDS011;9456;47.824;16.228;2023-03-16T17:09:51;5.83;;;4.00;;
18653;SDS011;9456;47.824;16.228;2023-03-16T17:12:23;5.10;;;4.53;;
18653;SDS011;9456;47.824;16.228;2023-03-16T17:14:53;10.40;;;4.60;;
18653;SDS011;9456;47.824;16.228;2023-03-16T17:17:22;9.67;;;5.97;;
18653;SDS011;9456;47.824;16.228;2023-03-16T17:19:51;8.00;;;5.70;;
18653;SDS011;9456;47.824;16.228;2023-03-16T17:22:21;10.90;;;5.87;;
18653;SDS011;9456;47.824;16.228;2023-03-16T17:24:49;9.70;;;6.80;;
18653;SDS011;9456;47.824;16.228;2023-03-16T17:27:22;10.60;;;6.47;;
18653;SDS011;9456;47.824;16.228;2023-03-16T17:29:54;16.07;;;7.50;;
18653;SDS011;9456;47.824;16.228;2023-03-16T17:32:23;7.40;;;5.17;;
18653;SDS011;9456;47.824;16.228;2023-03-16T17:34:52;7.27;;;4.53;;
18653;SDS011;9456;47.824;16.228;2023-03-16T17:39:57;10.53;;;8.10;;
18653;SDS011;9456;47.824;16.228;2023-03-16T17:42:29;9.87;;;7.67;;
18653;SDS011;9456;47.824;16.228;2023-03-16T17:44:58;15.07;;;9.07;;
18653;SDS011;9456;47.824;16.228;2023-03-16T17:47:33;20.83;;;11.97;;
18653;SDS011;9456;47.824;16.228;2023-03-16T17:50:08;19.90;;;13.13;;
18653;SDS011;9456;47.824;16.228;2023-03-16T17:52:41;22.67;;;12.83;;
18653;SDS011;9456;47.824;16.228;2023-03-16T17:55:10;17.00;;;12.03;;
18653;SDS011;9456;47.824;16.228;2023-03-16T17:57:39;16.80;;;10.57;;
18653;SDS011;9456;47.824;16.228;2023-03-16T18:00:16;23.80;;;13.97;;
18653;SDS011;9456;47.824;16.228;2023-03-16T18:02:48;23.53;;;13.20;;
18653;SDS011;9456;47.824;16.228;2023-03-16T18:05:17;18.67;;;11.00;;
18653;SDS011;9456;47.824;16.228;2023-03-16T18:07:46;21.63;;;14.07;;
18653;SDS011;9456;47.824;16.228;2023-03-16T18:10:16;26.90;;;22.80;;
18653;SDS011;9456;47.824;16.228;2023-03-16T18:12:47;22.43;;;18.00;;
18653;SDS011;9456;47.824;16.228;2023-03-16T18:15:16;22.53;;;17.43;;
18653;SDS011;9456;47.824;16.228;2023-03-16T18:17:45;35.37;;;20.63;;
18653;SDS011;9456;47.824;16.228;2023-03-16T18:20:19;37.50;;;23.60;;
18653;SDS011;9456;47.824;16.228;2023-03-16T18:22:50;33.17;;;21.87;;
18653;SDS011;9456;47.824;16.228;2023-03-16T18:25:40;20.13;;;15.47;;
18653;SDS011;9456;47.824;16.228;2023-03-16T18:28:10;17.37;;;13.23;;
18653;SDS011;9456;47.824;16.228;2023-03-16T18:30:41;19.73;;;13.57;;
18653;SDS011;9456;47.824;16.228;2023-03-16T18:33:15;19.20;;;11.77;;
18653;SDS011;9456;47.824;16.228;2023-03-16T18:35:48;20.97;;;10.43;;
18653;SDS011;9456;47.824;16.228;2023-03-16T18:38:18;10.97;;;8.33;;
18653;SDS011;9456;47.824;16.228;2023-03-16T18:40:47;12.40;;;7.47;;
18653;SDS011;9456;47.824;16.228;2023-03-16T18:46:09;10.83;;;6.70;;
18653;SDS011;9456;47.824;16.228;2023-03-16T18:49:01;8.07;;;5.60;;
18653;SDS011;9456;47.824;16.228;2023-03-16T18:51:29;11.90;;;6.13;;
18653;SDS011;9456;47.824;16.228;2023-03-16T18:53:59;14.37;;;6.57;;
18653;SDS011;9456;47.824;16.228;2023-03-16T18:56:30;14.00;;;6.73;;
18653;SDS011;9456;47.824;16.228;2023-03-16T19:07:54;20.30;;;10.37;;
18653;SDS011;9456;47.824;16.228;2023-03-16T19:16:05;19.93;;;8.60;;
18653;SDS011;9456;47.824;16.228;2023-03-16T19:21:13;19.73;;;11.00;;
18653;SDS011;9456;47.824;16.228;2023-03-16T19:41:19;27.10;;;14.23;;
18653;SDS011;9456;47.824;16.228;2023-03-16T19:43:50;38.47;;;14.00;;
18653;SDS011;9456;47.824;16.228;2023-03-16T19:48:51;63.80;;;14.87;;
18653;SDS011;9456;47.824;16.228;2023-03-16T19:54:12;59.87;;;13.57;;
18653;SDS011;9456;47.824;16.228;2023-03-16T19:56:45;35.97;;;13.47;;
18653;SDS011;9456;47.824;16.228;2023-03-16T20:04:55;28.57;;;11.47;;
18653;SDS011;9456;47.824;16.228;2023-03-16T20:12:47;25.27;;;10.07;;
18653;SDS011;9456;47.824;16.228;2023-03-16T20:15:17;31.63;;;12.90;;
18653;SDS011;9456;47.824;16.228;2023-03-16T20:17:46;71.03;;;24.83;;
18653;SDS011;9456;47.824;16.228;2023-03-16T20:20:23;51.17;;;14.37;;
18653;SDS011;9456;47.824;16.228;2023-03-16T20:25:25;46.53;;;14.53;;
18653;SDS011;9456;47.824;16.228;2023-03-16T20:27:55;53.93;;;16.90;;
18653;SDS011;9456;47.824;16.228;2023-03-16T20:30:24;36.37;;;15.57;;
18653;SDS011;9456;47.824;16.228;2023-03-16T20:32:54;27.73;;;9.93;;
18653;SDS011;9456;47.824;16.228;2023-03-16T20:35:24;22.33;;;9.63;;
18653;SDS011;9456;47.824;16.228;2023-03-16T20:40:53;17.00;;;9.00;;
18653;SDS011;9456;47.824;16.228;2023-03-16T20:43:23;12.40;;;8.20;;
18653;SDS011;9456;47.824;16.228;2023-03-16T20:45:59;23.77;;;9.00;;
18653;SDS011;9456;47.824;16.228;2023-03-16T20:54:59;12.43;;;8.60;;
18653;SDS011;9456;47.824;16.228;2023-03-16T21:11:00;12.23;;;6.97;;
18653;SDS011;9456;47.824;16.228;2023-03-16T21:13:31;17.30;;;8.60;;
18653;SDS011;9456;47.824;16.228;2023-03-16T21:21:22;15.10;;;9.40;;
18653;SDS011;9456;47.824;16.228;2023-03-16T21:23:51;18.23;;;9.17;;
18653;SDS011;9456;47.824;16.228;2023-03-16T21:26:22;13.53;;;8.90;;
18653;SDS011;9456;47.824;16.228;2023-03-16T21:28:51;16.13;;;8.73;;
18653;SDS011;9456;47.824;16.228;2023-03-16T21:34:20;17.80;;;8.07;;
18653;SDS011;9456;47.824;16.228;2023-03-16T21:42:47;17.20;;;8.90;;
18653;SDS011;9456;47.824;16.228;2023-03-16T21:45:21;11.43;;;7.93;;
18653;SDS011;9456;47.824;16.228;2023-03-16T21:47:50;14.87;;;8.53;;
18653;SDS011;9456;47.824;16.228;2023-03-16T22:01:50;13.17;;;8.70;;
18653;SDS011;9456;47.824;16.228;2023-03-16T22:04:20;22.33;;;8.37;;
18653;SDS011;9456;47.824;16.228;2023-03-16T22:07:01;12.60;;;8.03;;
18653;SDS011;9456;47.824;16.228;2023-03-16T22:09:32;13.90;;;8.03;;
18653;SDS011;9456;47.824;16.228;2023-03-16T22:12:11;15.67;;;8.60;;
18653;SDS011;9456;47.824;16.228;2023-03-16T22:14:44;12.13;;;7.80;;
18653;SDS011;9456;47.824;16.228;2023-03-16T22:25:18;15.67;;;7.80;;
18653;SDS011;9456;47.824;16.228;2023-03-16T22:27:50;14.33;;;7.77;;
18653;SDS011;9456;47.824;16.228;2023-03-16T22:36:03;12.63;;;7.33;;
18653;SDS011;9456;47.824;16.228;2023-03-16T22:45:21;11.43;;;6.70;;
18653;SDS011;9456;47.824;16.228;2023-03-16T22:47:51;10.30;;;7.20;;